createdAt,value
2019-05-19T00:00:06.085Z,0.00
2019-05-19T00:01:06.084Z,0.00
2019-05-19T00:02:06.057Z,0.00
2019-05-19T00:03:06.067Z,0.00
2019-05-19T00:04:06.026Z,0.00
2019-05-19T00:05:06.025Z,0.00
2019-05-19T00:06:05.999Z,0.00
2019-05-19T00:07:06.055Z,0.00
2019-05-19T00:08:05.993Z,0.00
2019-05-19T00:09:06.006Z,0.00
2019-05-19T00:10:05.979Z,0.00
2019-05-19T00:11:05.971Z,0.00
2019-05-19T00:12:05.949Z,0.00
2019-05-19T00:13:05.976Z,0.00
2019-05-19T00:14:05.936Z,0.00
2019-05-19T00:15:05.938Z,0.00
2019-05-19T00:16:05.912Z,0.00
2019-05-19T00:17:05.938Z,0.00
2019-05-19T00:18:05.915Z,0.00
2019-05-19T00:19:05.895Z,0.00
2019-05-19T00:20:05.869Z,0.00
2019-05-19T00:21:05.905Z,0.00
2019-05-19T00:22:05.829Z,0.00
2019-05-19T00:23:05.822Z,0.00
2019-05-19T00:24:05.837Z,0.00
2019-05-19T00:25:05.910Z,0.00
2019-05-19T00:26:05.824Z,0.00
2019-05-19T00:27:05.794Z,0.00
2019-05-19T00:28:05.810Z,0.00
2019-05-19T00:29:05.776Z,0.00
2019-05-19T00:30:05.771Z,0.00
2019-05-19T00:31:05.742Z,0.00
2019-05-19T00:32:05.757Z,0.00
2019-05-19T00:33:05.774Z,0.00
2019-05-19T00:34:05.748Z,0.00
2019-05-19T00:35:05.719Z,0.00
2019-05-19T00:36:05.723Z,0.00
2019-05-19T00:37:05.695Z,0.00
2019-05-19T00:38:05.697Z,0.00
2019-05-19T00:39:05.673Z,0.00
2019-05-19T00:40:05.694Z,0.00
2019-05-19T00:41:05.640Z,0.00
2019-05-19T00:42:05.665Z,0.00
2019-05-19T00:43:05.658Z,0.00
2019-05-19T00:44:05.632Z,0.00
2019-05-19T00:45:05.662Z,0.00
2019-05-19T00:46:05.619Z,0.00
2019-05-19T00:47:05.594Z,0.00
2019-05-19T00:48:05.610Z,0.00
2019-05-19T00:49:05.582Z,0.00
2019-05-19T00:50:05.558Z,0.00
2019-05-19T00:51:05.576Z,0.00
2019-05-19T00:52:05.548Z,0.00
2019-05-19T00:53:05.549Z,0.00
2019-05-19T00:54:05.547Z,0.00
2019-05-19T00:55:05.516Z,0.00
2019-05-19T00:56:05.526Z,0.00
2019-05-19T00:57:05.522Z,0.00
2019-05-19T00:58:05.482Z,0.00
2019-05-19T00:59:05.510Z,0.00
2019-05-19T01:00:05.478Z,0.00
2019-05-19T01:01:05.480Z,0.00
2019-05-19T01:02:05.479Z,0.00
2019-05-19T01:03:05.449Z,0.00
2019-05-19T01:04:05.445Z,0.00
2019-05-19T01:05:05.438Z,0.00
2019-05-19T01:06:05.414Z,0.00
2019-05-19T01:07:05.380Z,0.00
2019-05-19T01:08:05.382Z,0.00
2019-05-19T01:09:05.375Z,0.00
2019-05-19T01:10:05.388Z,0.00
2019-05-19T01:11:05.416Z,0.00
2019-05-19T01:12:05.362Z,0.00
2019-05-19T01:13:05.349Z,0.00
2019-05-19T01:14:05.347Z,0.00
2019-05-19T01:15:05.335Z,0.00
2019-05-19T01:16:05.323Z,0.00
2019-05-19T01:17:05.332Z,0.00
2019-05-19T01:18:05.308Z,0.00
2019-05-19T01:19:05.301Z,0.00
2019-05-19T01:20:05.286Z,0.00
2019-05-19T01:21:05.271Z,0.00
2019-05-19T01:22:05.239Z,0.00
2019-05-19T01:23:05.279Z,0.00
2019-05-19T01:24:05.281Z,0.00
2019-05-19T01:25:05.217Z,0.00
2019-05-19T01:26:05.209Z,0.00
2019-05-19T01:27:05.185Z,0.00
2019-05-19T01:28:05.202Z,0.00
2019-05-19T01:29:05.173Z,0.00
2019-05-19T01:30:05.173Z,0.00
2019-05-19T01:31:05.165Z,0.00
2019-05-19T01:32:05.164Z,0.00
2019-05-19T01:33:05.131Z,0.00
2019-05-19T01:34:05.139Z,0.00
2019-05-19T01:35:05.122Z,0.00
2019-05-19T01:36:05.139Z,0.00
2019-05-19T01:37:05.095Z,0.00
2019-05-19T01:38:05.068Z,0.00
2019-05-19T01:39:05.091Z,0.00
2019-05-19T01:40:05.090Z,0.00
2019-05-19T01:41:05.072Z,0.00
2019-05-19T01:42:05.090Z,0.00
2019-05-19T01:43:05.074Z,0.00
2019-05-19T01:44:05.042Z,0.00
2019-05-19T01:45:05.078Z,0.00
2019-05-19T01:46:05.059Z,0.00
2019-05-19T01:47:04.996Z,0.00
2019-05-19T01:48:05.011Z,0.00
2019-05-19T01:49:04.989Z,0.00
2019-05-19T01:50:17.054Z,0.00
2019-05-19T01:51:05.008Z,0.00
2019-05-19T01:52:04.934Z,0.00
2019-05-19T01:53:04.937Z,0.00
2019-05-19T01:54:04.910Z,0.00
2019-05-19T01:55:04.927Z,0.00
2019-05-19T01:56:04.910Z,0.00
2019-05-19T01:57:04.943Z,0.00
2019-05-19T01:58:04.884Z,0.00
2019-05-19T01:59:04.851Z,0.00
2019-05-19T02:00:04.872Z,0.00
2019-05-19T02:01:04.896Z,0.00
2019-05-19T02:02:04.841Z,0.00
2019-05-19T02:03:04.819Z,0.00
2019-05-19T02:04:04.844Z,0.00
2019-05-19T02:05:04.858Z,0.00
2019-05-19T02:06:04.801Z,0.00
2019-05-19T02:07:04.805Z,0.00
2019-05-19T02:08:04.829Z,0.00
2019-05-19T02:09:04.765Z,0.00
2019-05-19T02:10:04.763Z,0.00
2019-05-19T02:11:04.737Z,0.00
2019-05-19T02:12:04.737Z,0.00
2019-05-19T02:13:05.276Z,0.00
2019-05-19T02:14:04.708Z,0.00
2019-05-19T02:15:04.699Z,0.00
2019-05-19T02:16:04.689Z,0.00
2019-05-19T02:17:04.689Z,0.00
2019-05-19T02:18:04.668Z,0.00
2019-05-19T02:19:04.651Z,0.00
2019-05-19T02:20:04.632Z,0.00
2019-05-19T02:21:04.671Z,0.00
2019-05-19T02:22:04.623Z,0.00
2019-05-19T02:23:04.639Z,0.00
2019-05-19T02:24:04.617Z,0.00
2019-05-19T02:25:04.602Z,0.00
2019-05-19T02:26:04.655Z,0.00
2019-05-19T02:27:04.595Z,0.00
2019-05-19T02:28:04.575Z,0.00
2019-05-19T02:29:04.568Z,0.00
2019-05-19T02:30:04.626Z,0.00
2019-05-19T02:31:04.581Z,0.00
2019-05-19T02:32:04.532Z,0.00
2019-05-19T02:33:04.544Z,0.00
2019-05-19T02:34:04.542Z,0.00
2019-05-19T02:35:04.561Z,0.00
2019-05-19T02:36:04.495Z,0.00
2019-05-19T02:37:04.471Z,0.00
2019-05-19T02:38:04.442Z,0.00
2019-05-19T02:39:04.461Z,0.00
2019-05-19T02:40:04.451Z,0.00
2019-05-19T02:41:04.445Z,0.00
2019-05-19T02:42:04.453Z,0.00
2019-05-19T02:43:04.406Z,0.00
2019-05-19T02:44:04.414Z,0.00
2019-05-19T02:45:04.385Z,0.00
2019-05-19T02:46:04.379Z,0.00
2019-05-19T02:47:04.401Z,0.00
2019-05-19T02:48:04.371Z,0.00
2019-05-19T02:49:04.360Z,0.00
2019-05-19T02:50:04.349Z,0.00
2019-05-19T02:51:04.369Z,0.00
2019-05-19T02:52:04.330Z,0.00
2019-05-19T02:53:04.321Z,0.00
2019-05-19T02:54:04.301Z,0.00
2019-05-19T02:55:04.305Z,0.00
2019-05-19T02:56:04.287Z,0.00
2019-05-19T02:57:04.279Z,0.00
2019-05-19T02:58:04.262Z,0.00
2019-05-19T02:59:04.245Z,0.00
2019-05-19T03:00:04.246Z,0.00
2019-05-19T03:01:04.216Z,0.00
2019-05-19T03:02:04.236Z,0.00
2019-05-19T03:03:04.200Z,0.00
2019-05-19T03:04:04.187Z,0.00
2019-05-19T03:05:04.207Z,0.00
2019-05-19T03:06:04.170Z,0.00
2019-05-19T03:07:04.160Z,0.00
2019-05-19T03:08:04.140Z,0.00
2019-05-19T03:09:04.140Z,0.00
2019-05-19T03:10:04.124Z,0.00
2019-05-19T03:11:04.143Z,0.00
2019-05-19T03:12:04.126Z,0.00
2019-05-19T03:13:04.077Z,0.00
2019-05-19T03:14:04.134Z,0.00
2019-05-19T03:15:04.085Z,0.00
2019-05-19T03:16:04.075Z,0.00
2019-05-19T03:17:04.054Z,0.00
2019-05-19T03:18:04.054Z,0.00
2019-05-19T03:19:04.019Z,0.00
2019-05-19T03:20:04.032Z,0.00
2019-05-19T03:21:10.998Z,0.00
2019-05-19T03:22:04.036Z,0.00
2019-05-19T03:23:03.997Z,0.00
2019-05-19T03:24:04.033Z,0.00
2019-05-19T03:25:03.977Z,0.00
2019-05-19T03:26:03.968Z,0.00
2019-05-19T03:27:03.944Z,0.00
2019-05-19T03:28:03.929Z,0.00
2019-05-19T03:29:03.920Z,0.00
2019-05-19T03:30:03.931Z,0.00
2019-05-19T03:31:03.926Z,0.00
2019-05-19T03:32:03.897Z,0.00
2019-05-19T03:33:03.901Z,0.00
2019-05-19T03:34:03.908Z,0.00
2019-05-19T03:35:03.886Z,0.00
2019-05-19T03:36:03.843Z,0.00
2019-05-19T03:37:03.841Z,0.00
2019-05-19T03:38:03.829Z,0.00
2019-05-19T03:39:03.820Z,0.00
2019-05-19T03:40:03.831Z,0.00
2019-05-19T03:41:03.811Z,0.00
2019-05-19T03:42:03.800Z,0.00
2019-05-19T03:43:03.790Z,0.00
2019-05-19T03:44:03.795Z,0.00
2019-05-19T03:45:03.762Z,0.00
2019-05-19T03:46:03.752Z,0.00
2019-05-19T03:47:03.746Z,0.00
2019-05-19T03:48:03.717Z,0.00
2019-05-19T03:49:03.695Z,0.00
2019-05-19T03:50:03.748Z,0.00
2019-05-19T03:51:03.737Z,0.00
2019-05-19T03:52:03.672Z,0.00
2019-05-19T03:53:03.655Z,0.00
2019-05-19T03:54:03.670Z,0.00
2019-05-19T03:55:03.657Z,0.00
2019-05-19T03:56:03.624Z,0.00
2019-05-19T03:57:03.636Z,0.00
2019-05-19T03:58:03.621Z,0.00
2019-05-19T03:59:03.620Z,0.00
2019-05-19T04:00:03.610Z,0.00
2019-05-19T04:01:03.574Z,0.00
2019-05-19T04:02:03.566Z,0.00
2019-05-19T04:03:03.549Z,0.00
2019-05-19T04:04:03.612Z,0.00
2019-05-19T04:05:03.551Z,0.00
2019-05-19T04:06:03.526Z,0.00
2019-05-19T04:07:03.528Z,0.00
2019-05-19T04:08:03.525Z,0.00
2019-05-19T04:09:03.546Z,0.00
2019-05-19T04:10:03.497Z,0.00
2019-05-19T04:11:03.485Z,0.00
2019-05-19T04:12:03.475Z,0.00
2019-05-19T04:13:03.453Z,0.00
2019-05-19T04:14:03.464Z,0.00
2019-05-19T04:15:03.456Z,0.00
2019-05-19T04:16:03.444Z,0.00
2019-05-19T04:17:03.426Z,0.00
2019-05-19T04:18:03.406Z,0.00
2019-05-19T04:19:03.402Z,0.00
2019-05-19T04:20:03.418Z,0.00
2019-05-19T04:21:03.398Z,0.00
2019-05-19T04:22:03.361Z,0.00
2019-05-19T04:23:03.366Z,0.00
2019-05-19T04:24:03.361Z,0.00
2019-05-19T04:25:03.348Z,0.00
2019-05-19T04:26:03.363Z,0.00
2019-05-19T04:27:03.337Z,0.00
2019-05-19T04:28:03.320Z,0.00
2019-05-19T04:29:03.287Z,0.00
2019-05-19T04:30:03.286Z,0.00
2019-05-19T04:31:03.274Z,0.00
2019-05-19T04:32:03.253Z,0.00
2019-05-19T04:33:03.255Z,0.00
2019-05-19T04:34:03.240Z,0.00
2019-05-19T04:35:03.235Z,0.00
2019-05-19T04:36:03.267Z,0.00
2019-05-19T04:37:03.204Z,0.00
2019-05-19T04:38:03.215Z,0.00
2019-05-19T04:39:03.205Z,0.00
2019-05-19T04:40:03.164Z,0.00
2019-05-19T04:41:03.188Z,0.00
2019-05-19T04:42:03.171Z,0.00
2019-05-19T04:43:03.202Z,0.00
2019-05-19T04:44:03.121Z,0.00
2019-05-19T04:45:03.121Z,0.00
2019-05-19T04:46:03.105Z,0.00
2019-05-19T04:47:03.111Z,0.00
2019-05-19T04:48:03.085Z,0.00
2019-05-19T04:49:03.106Z,0.00
2019-05-19T04:50:03.098Z,0.00
2019-05-19T04:51:03.067Z,0.00
2019-05-19T04:52:07.019Z,0.00
2019-05-19T04:53:03.090Z,0.00
2019-05-19T04:54:03.052Z,0.00
2019-05-19T04:55:03.014Z,0.00
2019-05-19T04:56:03.319Z,0.00
2019-05-19T04:57:03.021Z,0.00
2019-05-19T04:58:02.983Z,0.00
2019-05-19T04:59:03.002Z,0.00
2019-05-19T05:00:02.955Z,0.00
2019-05-19T05:01:02.953Z,0.00
2019-05-19T05:02:03.206Z,0.00
2019-05-19T05:03:02.971Z,0.00
2019-05-19T05:04:02.940Z,0.00
2019-05-19T05:05:02.926Z,0.00
2019-05-19T05:06:02.915Z,0.00
2019-05-19T05:07:02.914Z,0.00
2019-05-19T05:08:03.219Z,0.00
2019-05-19T05:09:02.896Z,0.00
2019-05-19T05:10:02.923Z,0.00
2019-05-19T05:11:02.882Z,0.00
2019-05-19T05:12:02.859Z,0.00
2019-05-19T05:13:02.838Z,0.00
2019-05-19T05:14:03.031Z,0.00
2019-05-19T05:15:02.819Z,0.00
2019-05-19T05:16:02.805Z,0.00
2019-05-19T05:17:02.807Z,0.00
2019-05-19T05:18:02.799Z,0.00
2019-05-19T05:19:03.047Z,0.00
2019-05-19T05:20:02.800Z,0.00
2019-05-19T05:21:02.776Z,0.00
2019-05-19T05:22:02.753Z,0.00
2019-05-19T05:23:02.756Z,0.00
2019-05-19T05:24:03.040Z,0.00
2019-05-19T05:25:02.766Z,0.00
2019-05-19T05:26:02.717Z,0.00
2019-05-19T05:27:02.693Z,0.00
2019-05-19T05:28:02.681Z,0.00
2019-05-19T05:29:03.074Z,0.00
2019-05-19T05:30:02.681Z,0.00
2019-05-19T05:31:02.663Z,0.00
2019-05-19T05:32:02.644Z,0.00
2019-05-19T05:33:02.623Z,0.00
2019-05-19T05:34:03.124Z,0.00
2019-05-19T05:35:02.624Z,0.00
2019-05-19T05:36:02.633Z,0.00
2019-05-19T05:37:02.593Z,0.00
2019-05-19T05:38:02.659Z,0.00
2019-05-19T05:39:02.554Z,0.00
2019-05-19T05:40:02.906Z,0.00
2019-05-19T05:41:02.546Z,0.00
2019-05-19T05:42:02.538Z,0.00
2019-05-19T05:43:02.548Z,0.00
2019-05-19T05:44:02.571Z,0.00
2019-05-19T05:45:02.872Z,0.00
2019-05-19T05:46:02.512Z,0.00
2019-05-19T05:47:02.484Z,0.00
2019-05-19T05:48:02.519Z,0.00
2019-05-19T05:49:02.458Z,0.00
2019-05-19T05:50:02.757Z,0.00
2019-05-19T05:51:02.429Z,0.00
2019-05-19T05:52:02.435Z,0.00
2019-05-19T05:53:02.410Z,0.00
2019-05-19T05:54:02.470Z,0.00
2019-05-19T05:55:02.753Z,0.00
2019-05-19T05:56:02.396Z,0.00
2019-05-19T05:57:02.397Z,0.00
2019-05-19T05:58:02.383Z,0.00
2019-05-19T05:59:02.367Z,0.00
2019-05-19T06:00:02.742Z,0.00
2019-05-19T06:01:02.351Z,0.00
2019-05-19T06:02:02.330Z,0.00
2019-05-19T06:03:02.407Z,0.00
2019-05-19T06:04:02.310Z,0.00
2019-05-19T06:05:02.623Z,0.00
2019-05-19T06:06:02.301Z,0.00
2019-05-19T06:07:02.289Z,0.00
2019-05-19T06:08:02.289Z,0.00
2019-05-19T06:09:02.278Z,0.00
2019-05-19T06:10:02.610Z,0.00
2019-05-19T06:11:02.254Z,0.00
2019-05-19T06:12:02.243Z,0.00
2019-05-19T06:13:02.241Z,0.00
2019-05-19T06:14:02.223Z,0.00
2019-05-19T06:15:02.201Z,0.00
2019-05-19T06:16:02.522Z,0.00
2019-05-19T06:17:02.191Z,0.00
2019-05-19T06:18:02.190Z,0.00
2019-05-19T06:19:02.206Z,0.00
2019-05-19T06:20:02.409Z,0.00
2019-05-19T06:21:02.163Z,0.00
2019-05-19T06:22:02.393Z,0.00
2019-05-19T06:23:02.119Z,0.00
2019-05-19T06:24:02.118Z,0.00
2019-05-19T06:25:02.113Z,0.00
2019-05-19T06:26:02.085Z,0.00
2019-05-19T06:27:02.090Z,0.00
2019-05-19T06:28:02.377Z,0.00
2019-05-19T06:29:02.058Z,0.00
2019-05-19T06:30:02.058Z,0.00
2019-05-19T06:31:02.058Z,0.00
2019-05-19T06:32:02.043Z,0.00
2019-05-19T06:33:02.021Z,0.00
2019-05-19T06:34:02.269Z,0.00
2019-05-19T06:35:02.357Z,0.00
2019-05-19T06:36:01.984Z,0.00
2019-05-19T06:37:02.049Z,0.00
2019-05-19T06:38:02.096Z,0.00
2019-05-19T06:39:01.942Z,0.00
2019-05-19T06:40:02.305Z,0.00
2019-05-19T06:41:01.961Z,0.00
2019-05-19T06:42:01.922Z,0.00
2019-05-19T06:43:01.938Z,0.00
2019-05-19T06:44:03.435Z,0.00
2019-05-19T06:45:01.925Z,0.00
2019-05-19T06:46:02.161Z,0.00
2019-05-19T06:47:01.894Z,0.00
2019-05-19T06:48:01.864Z,0.00
2019-05-19T06:49:01.879Z,0.00
2019-05-19T06:50:02.063Z,0.00
2019-05-19T06:51:02.219Z,0.00
2019-05-19T06:52:01.827Z,0.00
2019-05-19T06:53:13.446Z,0.00
2019-05-19T06:54:01.822Z,0.00
2019-05-19T06:55:01.807Z,0.00
2019-05-19T06:56:01.778Z,0.00
2019-05-19T06:57:02.085Z,0.00
2019-05-19T06:58:01.782Z,0.00
2019-05-19T06:59:01.773Z,0.00
2019-05-19T07:00:01.757Z,0.00
2019-05-19T07:01:01.754Z,0.00
2019-05-19T07:02:01.929Z,0.00
2019-05-19T07:03:01.764Z,0.00
2019-05-19T07:04:01.717Z,0.00
2019-05-19T07:05:01.698Z,0.00
2019-05-19T07:06:01.699Z,0.00
2019-05-19T07:07:02.097Z,0.00
2019-05-19T07:08:01.664Z,0.00
2019-05-19T07:09:01.650Z,0.00
2019-05-19T07:10:01.640Z,0.00
2019-05-19T07:11:01.638Z,0.00
2019-05-19T07:12:01.918Z,0.00
2019-05-19T07:13:01.617Z,0.00
2019-05-19T07:14:03.022Z,0.00
2019-05-19T07:15:01.618Z,0.00
2019-05-19T07:16:01.599Z,0.00
2019-05-19T07:17:01.942Z,0.00
2019-05-19T07:18:01.571Z,0.00
2019-05-19T07:19:01.600Z,0.00
2019-05-19T07:20:01.532Z,0.00
2019-05-19T07:21:01.539Z,0.00
2019-05-19T07:22:01.800Z,0.00
2019-05-19T07:23:01.512Z,0.00
2019-05-19T07:24:01.536Z,0.00
2019-05-19T07:25:01.532Z,0.00
2019-05-19T07:26:01.493Z,0.00
2019-05-19T07:27:01.763Z,0.00
2019-05-19T07:28:01.466Z,0.00
2019-05-19T07:29:01.463Z,0.00
2019-05-19T07:30:01.433Z,0.00
2019-05-19T07:31:01.437Z,0.00
2019-05-19T07:32:01.779Z,0.00
2019-05-19T07:33:01.432Z,0.00
2019-05-19T07:34:01.382Z,0.00
2019-05-19T07:35:01.384Z,0.00
2019-05-19T07:36:01.377Z,0.00
2019-05-19T07:37:01.609Z,0.00
2019-05-19T07:38:01.349Z,0.00
2019-05-19T07:39:01.353Z,0.00
2019-05-19T07:40:01.344Z,0.00
2019-05-19T07:41:01.325Z,0.00
2019-05-19T07:42:01.319Z,0.00
2019-05-19T07:43:01.651Z,0.00
2019-05-19T07:44:01.306Z,0.00
2019-05-19T07:45:01.338Z,0.00
2019-05-19T07:46:01.274Z,0.00
2019-05-19T07:47:01.267Z,0.00
2019-05-19T07:48:01.525Z,0.00
2019-05-19T07:49:01.225Z,0.00
2019-05-19T07:50:01.254Z,0.00
2019-05-19T07:51:01.216Z,0.00
2019-05-19T07:52:01.210Z,0.00
2019-05-19T07:53:01.221Z,0.00
2019-05-19T07:54:01.435Z,0.00
2019-05-19T07:55:01.217Z,0.00
2019-05-19T07:56:01.172Z,0.00
2019-05-19T07:57:01.210Z,0.00
2019-05-19T07:58:01.159Z,0.00
2019-05-19T07:59:01.136Z,0.00
2019-05-19T08:00:01.395Z,0.00
2019-05-19T08:01:01.158Z,0.00
2019-05-19T08:02:01.134Z,0.00
2019-05-19T08:03:01.091Z,0.00
2019-05-19T08:04:01.100Z,0.00
2019-05-19T08:05:01.088Z,0.00
2019-05-19T08:06:01.320Z,0.00
2019-05-19T08:07:01.058Z,0.00
2019-05-19T08:08:01.064Z,0.00
2019-05-19T08:09:01.058Z,0.00
2019-05-19T08:10:01.027Z,0.00
2019-05-19T08:11:01.035Z,0.00
2019-05-19T08:12:01.226Z,0.00
2019-05-19T08:13:00.993Z,0.00
2019-05-19T08:14:00.986Z,0.00
2019-05-19T08:15:00.992Z,0.00
2019-05-19T08:16:00.963Z,0.00
2019-05-19T08:17:00.933Z,0.00
2019-05-19T08:18:01.296Z,0.00
2019-05-19T08:19:00.945Z,0.00
2019-05-19T08:20:00.928Z,0.00
2019-05-19T08:21:00.966Z,0.00
2019-05-19T08:22:00.922Z,0.00
2019-05-19T08:23:00.890Z,0.00
2019-05-19T08:24:01.322Z,0.00
2019-05-19T08:25:00.872Z,0.00
2019-05-19T08:26:00.875Z,0.00
2019-05-19T08:27:00.852Z,0.00
2019-05-19T08:28:08.512Z,0.00
2019-05-19T08:29:01.041Z,0.00
2019-05-19T08:30:00.828Z,0.00
2019-05-19T08:31:00.849Z,0.00
2019-05-19T08:32:00.799Z,0.00
2019-05-19T08:33:00.807Z,0.00
2019-05-19T08:34:01.348Z,0.00
2019-05-19T08:35:00.807Z,0.00
2019-05-19T08:36:00.783Z,0.00
2019-05-19T08:37:00.787Z,0.00
2019-05-19T08:38:00.755Z,0.00
2019-05-19T08:39:00.737Z,0.00
2019-05-19T08:40:01.140Z,0.00
2019-05-19T08:41:00.752Z,0.00
2019-05-19T08:42:00.705Z,0.00
2019-05-19T08:43:00.693Z,0.00
2019-05-19T08:44:00.738Z,0.00
2019-05-19T08:45:00.913Z,0.00
2019-05-19T08:46:00.660Z,0.00
2019-05-19T08:47:00.695Z,0.00
2019-05-19T08:48:00.645Z,0.00
2019-05-19T08:49:00.631Z,0.00
2019-05-19T08:50:00.955Z,0.00
2019-05-19T08:51:00.588Z,0.00
2019-05-19T08:52:00.587Z,0.00
2019-05-19T08:53:00.639Z,0.00
2019-05-19T08:54:13.826Z,0.00
2019-05-19T08:55:00.926Z,0.00
2019-05-19T08:56:00.559Z,0.00
2019-05-19T08:57:00.559Z,0.00
2019-05-19T08:58:00.535Z,0.00
2019-05-19T08:59:00.528Z,0.00
2019-05-19T09:00:00.751Z,0.00
2019-05-19T09:01:00.491Z,0.00
2019-05-19T09:02:00.531Z,0.00
2019-05-19T09:03:00.466Z,0.00
2019-05-19T09:04:00.469Z,0.00
2019-05-19T09:05:00.473Z,0.00
2019-05-19T09:06:00.788Z,0.00
2019-05-19T09:07:00.445Z,0.00
2019-05-19T09:08:00.423Z,0.00
2019-05-19T09:09:00.434Z,0.00
2019-05-19T09:10:00.407Z,0.00
2019-05-19T09:11:00.386Z,0.00
2019-05-19T09:12:00.625Z,0.00
2019-05-19T09:13:00.482Z,0.00
2019-05-19T09:14:00.409Z,0.00
2019-05-19T09:15:00.347Z,0.00
2019-05-19T09:16:00.341Z,0.00
2019-05-19T09:17:00.366Z,0.00
2019-05-19T09:18:00.881Z,0.00
2019-05-19T09:19:00.307Z,0.00
2019-05-19T09:20:00.315Z,0.00
2019-05-19T09:21:00.296Z,0.00
2019-05-19T09:22:00.303Z,0.00
2019-05-19T09:23:00.294Z,0.00
2019-05-19T09:24:00.623Z,0.00
2019-05-19T09:25:00.252Z,0.00
2019-05-19T09:26:00.232Z,0.00
2019-05-19T09:27:00.256Z,0.00
2019-05-19T09:28:00.212Z,0.00
2019-05-19T09:29:00.295Z,0.00
2019-05-19T09:30:02.205Z,0.00
2019-05-19T09:31:00.192Z,0.00
2019-05-19T09:32:00.165Z,0.00
2019-05-19T09:33:00.199Z,0.00
2019-05-19T09:34:00.179Z,0.00
2019-05-19T09:35:00.138Z,0.00
2019-05-19T09:36:00.382Z,0.00
2019-05-19T09:37:00.123Z,0.00
2019-05-19T09:38:00.104Z,0.00
2019-05-19T09:39:00.111Z,0.00
2019-05-19T09:40:00.125Z,0.00
2019-05-19T09:41:00.073Z,0.00
2019-05-19T09:42:00.480Z,0.00
2019-05-19T09:43:00.067Z,0.00
2019-05-19T09:44:00.092Z,0.00
2019-05-19T09:45:00.040Z,0.00
2019-05-19T09:46:00.008Z,0.00
2019-05-19T09:47:00.062Z,0.00
2019-05-19T09:48:00.650Z,0.00
2019-05-19T09:49:00.011Z,0.00
2019-05-19T09:49:59.992Z,0.00
2019-05-19T09:50:59.983Z,0.00
2019-05-19T09:51:59.971Z,0.00
2019-05-19T09:52:59.959Z,0.00
2019-05-19T09:54:00.203Z,0.00
2019-05-19T09:54:59.952Z,0.00
2019-05-19T09:55:59.910Z,0.00
2019-05-19T09:56:59.926Z,0.00
2019-05-19T09:57:59.911Z,0.00
2019-05-19T09:59:00.357Z,0.00
2019-05-19T09:59:59.899Z,0.00
2019-05-19T10:00:59.880Z,0.00
2019-05-19T10:01:59.902Z,0.00
2019-05-19T10:02:59.858Z,0.00
2019-05-19T10:03:59.856Z,0.00
2019-05-19T10:05:00.245Z,5.63
2019-05-19T10:05:59.823Z,5.63
2019-05-19T10:06:59.888Z,5.63
2019-05-19T10:07:59.879Z,5.63
2019-05-19T10:08:59.780Z,5.63
2019-05-19T10:10:00.051Z,5.63
2019-05-19T10:10:59.776Z,5.63
2019-05-19T10:11:59.775Z,5.63
2019-05-19T10:12:59.774Z,5.63
2019-05-19T10:13:59.759Z,5.63
2019-05-19T10:15:00.089Z,5.63
2019-05-19T10:15:59.716Z,5.63
2019-05-19T10:16:59.732Z,5.63
2019-05-19T10:17:59.686Z,5.63
2019-05-19T10:18:59.692Z,5.63
2019-05-19T10:19:59.687Z,5.63
2019-05-19T10:21:00.151Z,5.63
2019-05-19T10:21:59.695Z,5.63
2019-05-19T10:22:59.639Z,5.63
2019-05-19T10:23:59.648Z,5.63
2019-05-19T10:25:19.989Z,5.63
2019-05-19T10:25:59.938Z,5.63
2019-05-19T10:26:59.629Z,5.63
2019-05-19T10:27:59.602Z,5.63
2019-05-19T10:28:59.578Z,5.63
2019-05-19T10:29:59.593Z,5.63
2019-05-19T10:30:59.593Z,5.63
2019-05-19T10:31:59.804Z,5.63
2019-05-19T10:32:59.563Z,5.63
2019-05-19T10:33:59.551Z,5.63
2019-05-19T10:34:59.540Z,5.63
2019-05-19T10:35:59.528Z,5.63
2019-05-19T10:36:59.485Z,5.63
2019-05-19T10:37:59.948Z,5.63
2019-05-19T10:38:59.491Z,5.63
2019-05-19T10:39:59.473Z,11.25
2019-05-19T10:40:59.475Z,11.25
2019-05-19T10:41:59.475Z,11.25
2019-05-19T10:42:59.452Z,11.25
2019-05-19T10:44:00.822Z,11.25
2019-05-19T10:44:59.426Z,11.25
2019-05-19T10:45:59.413Z,11.25
2019-05-19T10:46:59.414Z,11.25
2019-05-19T10:47:59.398Z,16.88
2019-05-19T10:48:59.679Z,11.25
2019-05-19T10:49:59.380Z,11.25
2019-05-19T10:50:59.382Z,16.88
2019-05-19T10:51:59.367Z,16.88
2019-05-19T10:52:59.345Z,16.88
2019-05-19T10:53:59.622Z,16.88
2019-05-19T10:54:59.368Z,22.50
2019-05-19T10:55:59.315Z,22.50
2019-05-19T10:56:59.315Z,22.50
2019-05-19T10:57:59.288Z,22.50
2019-05-19T10:58:59.279Z,22.50
2019-05-19T10:59:59.563Z,22.50
2019-05-19T11:00:59.274Z,22.50
2019-05-19T11:01:59.267Z,22.50
2019-05-19T11:02:59.307Z,28.13
2019-05-19T11:03:59.238Z,22.50
2019-05-19T11:04:59.230Z,28.13
2019-05-19T11:05:59.518Z,28.13
2019-05-19T11:06:59.213Z,28.13
2019-05-19T11:07:59.173Z,28.13
2019-05-19T11:08:59.176Z,28.13
2019-05-19T11:09:59.183Z,28.13
2019-05-19T11:10:59.162Z,22.50
2019-05-19T11:11:59.398Z,22.50
2019-05-19T11:12:59.149Z,22.50
2019-05-19T11:13:59.150Z,22.50
2019-05-19T11:14:59.134Z,22.50
2019-05-19T11:15:59.128Z,22.50
2019-05-19T11:16:59.108Z,22.50
2019-05-19T11:17:59.450Z,22.50
2019-05-19T11:18:59.124Z,22.50
2019-05-19T11:19:59.075Z,22.50
2019-05-19T11:20:59.063Z,22.50
2019-05-19T11:21:59.069Z,22.50
2019-05-19T11:22:59.041Z,22.50
2019-05-19T11:23:59.418Z,22.50
2019-05-19T11:24:59.028Z,22.50
2019-05-19T11:25:59.011Z,22.50
2019-05-19T11:26:58.995Z,22.50
2019-05-19T11:27:59.008Z,22.50
2019-05-19T11:28:59.032Z,22.50
2019-05-19T11:29:59.192Z,22.50
2019-05-19T11:30:58.961Z,22.50
2019-05-19T11:31:58.932Z,22.50
2019-05-19T11:32:58.969Z,22.50
2019-05-19T11:33:58.952Z,22.50
2019-05-19T11:34:59.294Z,22.50
2019-05-19T11:35:58.917Z,22.50
2019-05-19T11:36:58.923Z,22.50
2019-05-19T11:37:58.942Z,28.13
2019-05-19T11:38:58.888Z,28.13
2019-05-19T11:39:58.872Z,28.13
2019-05-19T11:40:59.122Z,28.13
2019-05-19T11:41:58.845Z,28.13
2019-05-19T11:42:58.840Z,28.13
2019-05-19T11:43:58.850Z,28.13
2019-05-19T11:44:58.837Z,28.13
2019-05-19T11:45:59.278Z,28.13
2019-05-19T11:46:58.792Z,28.13
2019-05-19T11:47:58.820Z,28.13
2019-05-19T11:48:58.803Z,28.13
2019-05-19T11:49:58.789Z,28.13
2019-05-19T11:50:58.834Z,28.13
2019-05-19T11:51:59.047Z,28.13
2019-05-19T11:52:58.796Z,28.13
2019-05-19T11:53:58.746Z,28.13
2019-05-19T11:54:58.775Z,28.13
2019-05-19T11:56:06.267Z,28.13
2019-05-19T11:56:58.719Z,28.13
2019-05-19T11:57:58.992Z,33.75
2019-05-19T11:58:58.685Z,33.75
2019-05-19T11:59:58.676Z,33.75
2019-05-19T12:00:58.672Z,33.75
2019-05-19T12:01:58.665Z,33.75
2019-05-19T12:02:58.668Z,33.75
2019-05-19T12:03:59.162Z,33.75
2019-05-19T12:04:58.657Z,28.13
2019-05-19T12:05:58.673Z,28.13
2019-05-19T12:06:58.607Z,33.75
2019-05-19T12:07:58.620Z,33.75
2019-05-19T12:08:58.607Z,33.75
2019-05-19T12:09:58.855Z,33.75
2019-05-19T12:10:58.582Z,33.75
2019-05-19T12:11:58.622Z,33.75
2019-05-19T12:12:58.596Z,39.38
2019-05-19T12:13:58.574Z,39.38
2019-05-19T12:14:58.794Z,33.75
2019-05-19T12:15:58.543Z,33.75
2019-05-19T12:16:58.736Z,33.75
2019-05-19T12:17:58.509Z,33.75
2019-05-19T12:18:58.508Z,33.75
2019-05-19T12:19:58.959Z,39.38
2019-05-19T12:20:58.497Z,39.38
2019-05-19T12:21:58.476Z,45.00
2019-05-19T12:22:58.470Z,45.00
2019-05-19T12:23:58.465Z,45.00
2019-05-19T12:24:58.444Z,45.00
2019-05-19T12:25:58.831Z,45.00
2019-05-19T12:26:58.473Z,39.38
2019-05-19T12:27:58.443Z,33.75
2019-05-19T12:28:58.399Z,33.75
2019-05-19T12:29:58.466Z,33.75
2019-05-19T12:30:58.696Z,33.75
2019-05-19T12:31:58.413Z,33.75
2019-05-19T12:32:59.364Z,39.38
2019-05-19T12:33:58.363Z,39.38
2019-05-19T12:34:58.340Z,45.00
2019-05-19T12:35:58.802Z,45.00
2019-05-19T12:36:58.368Z,50.63
2019-05-19T12:37:58.345Z,61.88
2019-05-19T12:38:58.328Z,56.25
2019-05-19T12:39:58.324Z,56.25
2019-05-19T12:40:58.309Z,50.63
2019-05-19T12:41:58.585Z,45.00
2019-05-19T12:42:58.312Z,45.00
2019-05-19T12:43:58.292Z,45.00
2019-05-19T12:44:58.279Z,45.00
2019-05-19T12:45:58.338Z,45.00
2019-05-19T12:46:58.263Z,45.00
2019-05-19T12:47:58.530Z,45.00
2019-05-19T12:48:58.233Z,45.00
2019-05-19T12:49:58.243Z,39.38
2019-05-19T12:50:58.239Z,45.00
2019-05-19T12:51:58.203Z,61.88
2019-05-19T12:52:58.222Z,50.63
2019-05-19T12:53:58.563Z,73.13
2019-05-19T12:54:58.208Z,67.50
2019-05-19T12:55:58.166Z,61.88
2019-05-19T12:56:58.159Z,78.75
2019-05-19T12:57:58.150Z,78.75
2019-05-19T12:58:58.166Z,78.75
2019-05-19T12:59:58.389Z,78.75
2019-05-19T13:00:58.135Z,73.13
2019-05-19T13:01:58.129Z,73.13
2019-05-19T13:02:58.119Z,67.50
2019-05-19T13:03:58.113Z,67.50
2019-05-19T13:05:05.061Z,67.50
2019-05-19T13:05:58.498Z,67.50
2019-05-19T13:06:58.108Z,61.88
2019-05-19T13:07:58.102Z,61.88
2019-05-19T13:08:58.091Z,61.88
2019-05-19T13:09:58.129Z,61.88
2019-05-19T13:10:58.073Z,56.25
2019-05-19T13:11:58.416Z,56.25
2019-05-19T13:12:58.058Z,56.25